Time;durP1;ratioP1;P1;durP2;ratioP2;P2;SDS_P1;SDS_P2;PMS_P1;PMS_P2;Temp;Humidity;BMP_temperature;BMP_pressure;BME280_temperature;BME280_humidity;BME280_pressure;Samples;Min_cycle;Max_cycle;Signal;HPM_P1;HPM_P2
2023/11/05 00:00:43;;;;;;;;;;;;;;;;;;2195463;59;3110;-25
2023/11/05 00:03:14;;;;;;;;;;;;;;;;;;2200107;59;3578;-28
2023/11/05 00:05:44;;;;;;;;;;;;;;;;;;2198685;59;3390;-25
2023/11/05 00:08:15;;;;;;;;;;;;;;;;;;2199065;67;3203;-24
2023/11/05 00:10:45;;;;;;;;;;;;;;;;;;2194069;67;3153;-24
2023/11/05 00:13:15;;;;;;;;;;;;;;;;;;2201120;59;2616;-26
2023/11/05 00:15:45;;;;;;;;;;;;;;;;;;2194829;67;2536;-24
2023/11/05 00:18:15;;;;;;;;;;;;;;;;;;2197759;67;3053;-25
2023/11/05 00:20:46;;;;;;;;;;;;;;;;;;2197714;67;2799;-28
2023/11/05 00:23:16;;;;;;;;;;;;;;;;;;2200699;67;2079;-28
2023/11/05 00:25:46;;;;;;;;;;;;;;;;;;2199354;67;3280;-28
2023/11/05 00:28:16;;;;;;;;;;;;;;;;;;2200907;67;2510;-28
2023/11/05 00:30:47;;;;;;;;;;;;;;;;;;2195091;59;2519;-28
2023/11/05 00:33:17;;;;;;;;;;;;;;;;;;2197570;59;3224;-28
2023/11/05 00:35:48;;;;;;;;;;;;;;;;;;2198484;59;3339;-27
2023/11/05 00:38:18;;;;;;;;;;;;;;;;;;2199937;67;2376;-28
2023/11/05 00:40:48;;;;;;;;;;;;;;;;;;2195065;59;3015;-28
2023/11/05 00:43:19;;;;;;;;;;;;;;;;;;2200737;67;2359;-28
2023/11/05 00:45:50;;;;;;;;;;;;;;;;;;2199833;67;2965;-25
2023/11/05 00:48:20;;;;;;;;;;;;;;;;;;2199394;67;2565;-25
2023/11/05 00:50:50;;;;;;;;;;;;;;;;;;2199226;67;3017;-25
2023/11/05 00:53:20;;;;;;;;;;;;;;;;;;2198805;67;2969;-25
2023/11/05 00:55:50;;;;;;;;;;;;;;;;;;2200057;59;2574;-25
2023/11/05 00:58:21;;;;;;;;;;;;;;;;;;2200370;60;2311;-26
2023/11/05 01:00:52;;;;;;;;;;;;;;;;;;2197516;59;2935;-23
2023/11/05 01:03:22;;;;;;;;;;;;;;;;;;2198741;59;2456;-26
2023/11/05 01:05:52;;;;;;;;;;;;;;;;;;2197152;64;2135;-26
2023/11/05 01:08:23;;;;;;;;;;;;;;;;;;2195594;59;2479;-25
2023/11/05 01:10:53;;;;;;;;;;;;;;;;;;2196294;67;2395;-25
2023/11/05 01:13:24;;;;;;;;;;;;;;;;;;2200244;59;3678;-25
2023/11/05 01:15:54;;;;;;;;;;;;;;;;;;2197840;67;2265;-26
2023/11/05 01:18:25;;;;;;;;;;;;;;;;;;2199825;59;2814;-25
2023/11/05 01:20:56;;;;;;;;;;;;;;;;;;2199463;67;2646;-25
2023/11/05 01:23:26;;;;;;;;;;;;;;;;;;2199490;59;3708;-25
2023/11/05 01:25:56;;;;;;;;;;;;;;;;;;2197194;67;2383;-26
2023/11/05 01:28:26;;;;;;;;;;;;;;;;;;2196232;59;3624;-25
2023/11/05 01:30:57;;;;;;;;;;;;;;;;;;2200462;59;2851;-25
2023/11/05 01:33:27;;;;;;;;;;;;;;;;;;2200312;59;3262;-25
2023/11/05 01:35:57;;;;;;;;;;;;;;;;;;2200926;59;3391;-26
2023/11/05 01:38:27;;;;;;;;;;;;;;;;;;2199986;59;2968;-25
2023/11/05 01:40:57;;;;;;;;;;;;;;;;;;2200474;59;2706;-25
2023/11/05 01:43:28;;;;;;;;;;;;;;;;;;2199726;59;2446;-25
2023/11/05 01:45:58;;;;;;;;;;;;;;;;;;2200962;67;2301;-25
2023/11/05 01:48:28;;;;;;;;;;;;;;;;;;2199464;67;3491;-25
2023/11/05 01:51:01;;;;;;;;;;;;;;;;;;2197021;67;2831;-25
2023/11/05 01:53:32;;;;;;;;;;;;;;;;;;2199985;64;3264;-25
2023/11/05 01:56:02;;;;;;;;;;;;;;;;;;2201086;67;2071;-25
2023/11/05 01:58:32;;;;;;;;;;;;;;;;;;2195818;67;2524;-25
2023/11/05 02:01:03;;;;;;;;;;;;;;;;;;2200478;59;2552;-25
2023/11/05 02:03:33;;;;;;;;;;;;;;;;;;2200227;59;2719;-25
2023/11/05 02:06:03;;;;;;;;;;;;;;;;;;2199742;67;2331;-26
2023/11/05 02:08:34;;;;;;;;;;;;;;;;;;2199970;67;2518;-25
2023/11/05 02:11:05;;;;;;;;;;;;;;;;;;2199720;67;2637;-25
2023/11/05 02:13:51;;;;;;;;;;;;;;;;;;2199837;67;3112;-25
2023/11/05 02:16:22;;;;;;;;;;;;;;;;;;2198364;67;2214;-25
2023/11/05 02:18:53;;;;;;;;;;;;;;;;;;2200327;59;2764;-25
2023/11/05 02:21:28;;;;;;;;;;;;;;;;;;2201094;67;3142;-27
2023/11/05 02:23:58;;;;;;;;;;;;;;;;;;2197228;67;3106;-27
2023/11/05 02:26:28;;;;;;;;;;;;;;;;;;2199539;59;3055;-27
2023/11/05 02:28:58;;;;;;;;;;;;;;;;;;2198243;59;2377;-27
2023/11/05 02:31:29;;;;;;;;;;;;;;;;;;2198524;67;3414;-27
2023/11/05 02:33:59;;;;;;;;;;;;;;;;;;2200867;59;2800;-27
2023/11/05 02:36:29;;;;;;;;;;;;;;;;;;2197792;59;3410;-27
2023/11/05 02:39:00;;;;;;;;;;;;;;;;;;2197458;59;2262;-27
2023/11/05 02:41:30;;;;;;;;;;;;;;;;;;2195683;59;2693;-27
2023/11/05 02:44:00;;;;;;;;;;;;;;;;;;2198118;59;2453;-27
2023/11/05 02:46:30;;;;;;;;;;;;;;;;;;2196509;67;2467;-27
2023/11/05 02:49:01;;;;;;;;;;;;;;;;;;2201344;67;3223;-27
2023/11/05 02:51:31;;;;;;;;;;;;;;;;;;2199416;59;2571;-27
2023/11/05 02:54:01;;;;;;;;;;;;;;;;;;2201057;67;12724;-27
2023/11/05 02:56:31;;;;;;;;;;;;;;;;;;2197580;67;2643;-27
2023/11/05 02:59:02;;;;;;;;;;;;;;;;;;2197319;67;2222;-27
2023/11/05 03:01:34;;;;;;;;;;;;;;;;;;2199037;59;2734;-27
2023/11/05 03:04:05;;;;;;;;;;;;;;;;;;2201326;59;2439;-27
2023/11/05 03:06:35;;;;;;;;;;;;;;;;;;2199015;67;2860;-25
2023/11/05 03:09:05;;;;;;;;;;;;;;;;;;2197886;67;3657;-25
2023/11/05 03:11:36;;;;;;;;;;;;;;;;;;2194917;67;3538;-25
2023/11/05 03:14:06;;;;;;;;;;;;;;;;;;2198040;67;3540;-25
2023/11/05 03:16:37;;;;;;;;;;;;;;;;;;2199051;67;2530;-25
2023/11/05 03:19:07;;;;;;;;;;;;;;;;;;2194732;59;2392;-25
2023/11/05 03:21:38;;;;;;;;;;;;;;;;;;2198329;67;2495;-25
2023/11/05 03:24:08;;;;;;;;;;;;;;;;;;2197923;59;2279;-25
2023/11/05 03:26:38;;;;;;;;;;;;;;;;;;2200462;59;2798;-25
2023/11/05 03:29:08;;;;;;;;;;;;;;;;;;2201332;59;2354;-25
2023/11/05 03:31:39;;;;;;;;;;;;;;;;;;2198328;59;2989;-25
2023/11/05 03:34:09;;;;;;;;;;;;;;;;;;2201053;59;2539;-25
2023/11/05 03:36:39;;;;;;;;;;;;;;;;;;2194722;59;3375;-25
2023/11/05 03:39:10;;;;;;;;;;;;;;;;;;2200647;59;2737;-25
2023/11/05 03:41:40;;;;;;;;;;;;;;;;;;2196646;59;2822;-25
2023/11/05 03:44:10;;;;;;;;;;;;;;;;;;2201535;59;2481;-25
2023/11/05 03:46:40;;;;;;;;;;;;;;;;;;2199622;67;2581;-25
2023/11/05 03:49:11;;;;;;;;;;;;;;;;;;2201948;59;3469;-25
2023/11/05 03:51:43;;;;;;;;;;;;;;;;;;2198863;59;3612;-25
2023/11/05 03:54:13;;;;;;;;;;;;;;;;;;2197212;67;2087;-25
2023/11/05 03:56:43;;;;;;;;;;;;;;;;;;2200212;67;2481;-25
2023/11/05 03:59:14;;;;;;;;;;;;;;;;;;2198075;59;1925;-25
2023/11/05 04:01:48;;;;;;;;;;;;;;;;;;2197639;59;2536;-25
2023/11/05 04:04:18;;;;;;;;;;;;;;;;;;2196412;59;2611;-25
2023/11/05 04:06:48;;;;;;;;;;;;;;;;;;2200401;67;2571;-25
2023/11/05 04:09:18;;;;;;;;;;;;;;;;;;2200685;67;1937;-25
2023/11/05 04:11:49;;;;;;;;;;;;;;;;;;2195264;67;2939;-25
2023/11/05 04:14:19;;;;;;;;;;;;;;;;;;2200460;67;2439;-26
2023/11/05 04:16:49;;;;;;;;;;;;;;;;;;2199618;67;2607;-27
2023/11/05 04:19:19;;;;;;;;;;;;;;;;;;2198103;59;3063;-27
2023/11/05 04:21:50;;;;;;;;;;;;;;;;;;2197989;60;2421;-27
2023/11/05 04:24:20;;;;;;;;;;;;;;;;;;2197379;67;2940;-27
2023/11/05 04:26:50;;;;;;;;;;;;;;;;;;2199954;67;3426;-27
2023/11/05 04:29:21;;;;;;;;;;;;;;;;;;2201618;59;2413;-27
2023/11/05 04:31:52;;;;;;;;;;;;;;;;;;2199496;59;2917;-27
2023/11/05 04:34:23;;;;;;;;;;;;;;;;;;2199328;64;2264;-27
2023/11/05 04:36:53;;;;;;;;;;;;;;;;;;2198755;67;3252;-27
2023/11/05 04:39:25;;;;;;;;;;;;;;;;;;2197203;59;3585;-27
2023/11/05 04:41:56;;;;;;;;;;;;;;;;;;2197919;59;3365;-27
2023/11/05 04:44:26;;;;;;;;;;;;;;;;;;2198204;59;2148;-27
2023/11/05 04:46:56;;;;;;;;;;;;;;;;;;2201002;59;2974;-27
2023/11/05 04:49:27;;;;;;;;;;;;;;;;;;2201196;59;3058;-27
2023/11/05 04:51:58;;;;;;;;;;;;;;;;;;2199098;59;3604;-27
2023/11/05 04:54:28;;;;;;;;;;;;;;;;;;2200973;67;2129;-27
2023/11/05 04:56:59;;;;;;;;;;;;;;;;;;2200367;67;2513;-27
2023/11/05 04:59:29;;;;;;;;;;;;;;;;;;2201441;67;2666;-27
2023/11/05 05:01:59;;;;;;;;;;;;;;;;;;2198847;59;2477;-27
2023/11/05 05:04:29;;;;;;;;;;;;;;;;;;2200972;67;2223;-27
2023/11/05 05:07:00;;;;;;;;;;;;;;;;;;2196412;59;2422;-27
2023/11/05 05:09:30;;;;;;;;;;;;;;;;;;2201836;59;1867;-27
2023/11/05 05:12:00;;;;;;;;;;;;;;;;;;2197519;67;3019;-27
2023/11/05 05:14:30;;;;;;;;;;;;;;;;;;2201865;67;2238;-26
2023/11/05 05:17:01;;;;;;;;;;;;;;;;;;2193997;64;2901;-27
2023/11/05 05:19:31;;;;;;;;;;;;;;;;;;2201183;67;2093;-27
2023/11/05 05:22:02;;;;;;;;;;;;;;;;;;2198808;67;2572;-26
2023/11/05 05:24:32;;;;;;;;;;;;;;;;;;2201888;67;2265;-27
2023/11/05 05:27:03;;;;;;;;;;;;;;;;;;2201355;67;2774;-27
2023/11/05 05:29:33;;;;;;;;;;;;;;;;;;2198592;59;3216;-27
2023/11/05 05:32:04;;;;;;;;;;;;;;;;;;2194768;59;3009;-27
2023/11/05 05:34:34;;;;;;;;;;;;;;;;;;2200440;59;2090;-26
2023/11/05 05:37:04;;;;;;;;;;;;;;;;;;2196772;59;3095;-27
2023/11/05 05:39:34;;;;;;;;;;;;;;;;;;2201136;59;3399;-26
2023/11/05 05:42:05;;;;;;;;;;;;;;;;;;2199995;59;2885;-27
2023/11/05 05:44:35;;;;;;;;;;;;;;;;;;2194944;59;2940;-27
2023/11/05 05:47:05;;;;;;;;;;;;;;;;;;2200502;59;2391;-26
2023/11/05 05:49:35;;;;;;;;;;;;;;;;;;2201527;67;2954;-27
2023/11/05 05:52:05;;;;;;;;;;;;;;;;;;2199162;59;2562;-27
2023/11/05 05:54:36;;;;;;;;;;;;;;;;;;2201394;59;1850;-26
2023/11/05 05:57:06;;;;;;;;;;;;;;;;;;2197619;67;2881;-25
2023/11/05 05:59:37;;;;;;;;;;;;;;;;;;2201997;59;2304;-25
2023/11/05 06:02:07;;;;;;;;;;;;;;;;;;2200850;59;2601;-25
2023/11/05 06:04:38;;;;;;;;;;;;;;;;;;2201921;67;2304;-25
2023/11/05 06:07:09;;;;;;;;;;;;;;;;;;2197998;67;1919;-25
2023/11/05 06:09:39;;;;;;;;;;;;;;;;;;2200924;59;2170;-25
2023/11/05 06:12:09;;;;;;;;;;;;;;;;;;2198997;67;3348;-25
2023/11/05 06:14:39;;;;;;;;;;;;;;;;;;2191367;67;2842;-25
2023/11/05 06:17:10;;;;;;;;;;;;;;;;;;2202980;59;2494;-25
2023/11/05 06:19:40;;;;;;;;;;;;;;;;;;2200803;59;2875;-25
2023/11/05 06:22:11;;;;;;;;;;;;;;;;;;2200760;67;2759;-25
2023/11/05 06:24:41;;;;;;;;;;;;;;;;;;2200557;67;1931;-25
2023/11/05 06:27:11;;;;;;;;;;;;;;;;;;2200962;59;2445;-25
2023/11/05 06:29:42;;;;;;;;;;;;;;;;;;2199863;59;2349;-25
2023/11/05 06:32:12;;;;;;;;;;;;;;;;;;2200444;59;3581;-25
2023/11/05 06:34:42;;;;;;;;;;;;;;;;;;2195399;59;3577;-25
2023/11/05 06:37:12;;;;;;;;;;;;;;;;;;2201769;67;2321;-25
2023/11/05 06:39:43;;;;;;;;;;;;;;;;;;2195758;59;3346;-25
2023/11/05 06:42:13;;;;;;;;;;;;;;;;;;2200856;59;2646;-25
2023/11/05 06:44:45;;;;;;;;;;;;;;;;;;2200150;59;2921;-25
2023/11/05 06:47:15;;;;;;;;;;;;;;;;;;2201382;67;3549;-25
2023/11/05 06:49:46;;;;;;;;;;;;;;;;;;2196210;67;3413;-25
2023/11/05 06:52:16;;;;;;;;;;;;;;;;;;2191350;59;3055;-25
2023/11/05 06:54:47;;;;;;;;;;;;;;;;;;2199337;59;2870;-25
2023/11/05 06:57:17;;;;;;;;;;;;;;;;;;2201436;60;2566;-25
2023/11/05 06:59:47;;;;;;;;;;;;;;;;;;2199297;59;2645;-25
2023/11/05 07:02:17;;;;;;;;;;;;;;;;;;2199561;59;2452;-25
2023/11/05 07:04:47;;;;;;;;;;;;;;;;;;2195939;67;3364;-41
2023/11/05 07:07:18;;;;;;;;;;;;;;;;;;2197779;67;2985;-25
2023/11/05 07:09:50;;;;;;;;;;;;;;;;;;2199868;67;2729;-25
2023/11/05 07:12:20;;;;;;;;;;;;;;;;;;2199389;67;3007;-25
2023/11/05 07:14:51;;;;;;;;;;;;;;;;;;2200535;59;3397;-25
2023/11/05 07:17:21;;;;;;;;;;;;;;;;;;2198846;63;2491;-25
2023/11/05 07:19:51;;;;;;;;;;;;;;;;;;2197577;67;3276;-26
2023/11/05 07:22:21;;;;;;;;;;;;;;;;;;2198605;59;3397;-25
2023/11/05 07:24:52;;;;;;;;;;;;;;;;;;2199751;59;3876;-25
2023/11/05 07:27:23;;;;;;;;;;;;;;;;;;2201841;59;2636;-24
2023/11/05 07:29:53;;;;;;;;;;;;;;;;;;2194865;67;2795;-27
2023/11/05 07:32:23;;;;;;;;;;;;;;;;;;2199000;59;2784;-24
2023/11/05 07:34:54;;;;;;;;;;;;;;;;;;2194942;67;3407;-25
2023/11/05 07:37:30;;;;;;;;;;;;;;;;;;2197835;59;2236;-25
2023/11/05 07:40:00;;;;;;;;;;;;;;;;;;2198376;59;3267;-24
2023/11/05 07:42:31;;;;;;;;;;;;;;;;;;2200341;67;3645;-24
2023/11/05 07:45:01;;;;;;;;;;;;;;;;;;2196789;59;2514;-25
2023/11/05 07:47:31;;;;;;;;;;;;;;;;;;2200961;67;2433;-25
2023/11/05 07:50:01;;;;;;;;;;;;;;;;;;2198805;59;2625;-25
2023/11/05 07:52:32;;;;;;;;;;;;;;;;;;2200358;67;2514;-25
2023/11/05 07:55:02;;;;;;;;;;;;;;;;;;2199040;59;3694;-25
2023/11/05 07:57:33;;;;;;;;;;;;;;;;;;2200568;59;2662;-24
2023/11/05 08:00:04;;;;;;;;;;;;;;;;;;2198741;59;2955;-24
2023/11/05 08:02:35;;;;;;;;;;;;;;;;;;2201335;59;3176;-26
2023/11/05 08:05:06;;;;;;;;;;;;;;;;;;2195707;67;3247;-26
2023/11/05 08:07:37;;;;;;;;;;;;;;;;;;2197161;59;2498;-24
2023/11/05 08:10:07;;;;;;;;;;;;;;;;;;2192615;59;2957;-24
2023/11/05 08:12:38;;;;;;;;;;;;;;;;;;2201111;67;2743;-24
2023/11/05 08:15:09;;;;;;;;;;;;;;;;;;2197403;59;3210;-24
2023/11/05 08:17:39;;;;;;;;;;;;;;;;;;2200637;67;3756;-25
2023/11/05 08:20:11;;;;;;;;;;;;;;;;;;2197351;67;3375;-25
2023/11/05 08:22:43;;;;;;;;;;;;;;;;;;2196475;59;2554;-25
2023/11/05 08:25:14;;;;;;;;;;;;;;;;;;2199300;59;3707;-25
2023/11/05 08:27:44;;;;;;;;;;;;;;;;;;2199931;59;3012;-25
2023/11/05 08:30:15;;;;;;;;;;;;;;;;;;2196702;59;2811;-27
2023/11/05 08:32:46;;;;;;;;;;;;;;;;;;2199624;59;3731;-28
2023/11/05 08:35:18;;;;;;;;;;;;;;;;;;2198872;59;4194;-28
2023/11/05 08:37:49;;;;;;;;;;;;;;;;;;2195221;67;3344;-28
2023/11/05 08:40:19;;;;;;;;;;;;;;;;;;2199416;59;3358;-28
2023/11/05 08:42:50;;;;;;;;;;;;;;;;;;2198469;67;3930;-28
2023/11/05 08:45:20;;;;;;;;;;;;;;;;;;2200906;59;3323;-28
2023/11/05 08:47:51;;;;;;;;;;;;;;;;;;2195602;67;3716;-28
2023/11/05 08:50:24;;;;;;;;;;;;;;;;;;2197081;67;3316;-28
2023/11/05 08:52:54;;;;;;;;;;;;;;;;;;2193223;67;3572;-28
2023/11/05 08:55:30;;;;;;;;;;;;;;;;;;2200862;67;3766;-28
2023/11/05 08:58:01;;;;;;;;;;;;;;;;;;2195910;67;3971;-28
2023/11/05 09:00:34;;;;;;;;;;;;;;;;;;2198382;59;3822;-28
2023/11/05 09:03:06;;;;;;;;;;;;;;;;;;2198853;59;3253;-27
2023/11/05 09:05:37;;;;;;;;;;;;;;;;;;2201378;67;3928;-27
2023/11/05 09:08:09;;;;;;;;;;;;;;;;;;2198842;59;3436;-27
2023/11/05 09:10:39;;;;;;;;;;;;;;;;;;2201113;67;3980;-29
2023/11/05 09:13:09;;;;;;;;;;;;;;;;;;2197818;67;2575;-27
2023/11/05 09:15:39;;;;;;;;;;;;;;;;;;2197130;67;3392;-27
2023/11/05 09:18:09;;;;;;;;;;;;;;;;;;2199024;67;2769;-26
2023/11/05 09:20:40;;;;;;;;;;;;;;;;;;2200621;67;3666;-26
2023/11/05 09:23:10;;;;;;;;;;;;;;;;;;2195782;67;3416;-27
2023/11/05 09:25:40;;;;;;;;;;;;;;;;;;2200240;67;3694;-28
2023/11/05 09:28:10;;;;;;;;;;;;;;;;;;2199063;59;2989;-27
2023/11/05 09:30:42;;;;;;;;;;;;;;;;;;2199437;59;2860;-28
2023/11/05 09:33:14;;;;;;;;;;;;;;;;;;2199948;59;3558;-27
2023/11/05 09:35:44;;;;;;;;;;;;;;;;;;2198497;59;3778;-27
2023/11/05 09:38:14;;;;;;;;;;;;;;;;;;2200968;59;3956;-27
2023/11/05 09:40:46;;;;;;;;;;;;;;;;;;2198662;59;3859;-27
2023/11/05 09:43:17;;;;;;;;;;;;;;;;;;2194804;59;4089;-27
2023/11/05 09:45:48;;;;;;;;;;;;;;;;;;2197812;67;4099;-27
2023/11/05 09:48:19;;;;;;;;;;;;;;;;;;2195238;59;2930;-27
2023/11/05 09:50:49;;;;;;;;;;;;;;;;;;2189071;67;3410;-29
2023/11/05 09:53:19;;;;;;;;;;;;;;;;;;2198185;59;3368;-29
2023/11/05 09:55:49;;;;;;;;;;;;;;;;;;2200819;67;3970;-28
2023/11/05 09:58:20;;;;;;;;;;;;;;;;;;2196220;59;3881;-28
2023/11/05 10:00:51;;;;;;;;;;;;;;;;;;2200646;59;2929;-26
2023/11/05 10:03:24;;;;;;;;;;;;;;;;;;2196973;59;2893;-28
2023/11/05 10:05:55;;;;;;;;;;;;;;;;;;2195284;59;2981;-28
2023/11/05 10:08:26;;;;;;;;;;;;;;;;;;2199839;59;2666;-29
2023/11/05 10:10:57;;;;;;;;;;;;;;;;;;2193548;67;3311;-29
2023/11/05 10:13:28;;;;;;;;;;;;;;;;;;2200038;59;2790;-28
2023/11/05 10:15:59;;;;;;;;;;;;;;;;;;2197956;67;4255;-28
2023/11/05 10:18:33;;;;;;;;;;;;;;;;;;2200255;67;3516;-28
2023/11/05 10:21:04;;;;;;;;;;;;;;;;;;2195602;67;3180;-28
2023/11/05 10:23:48;;;;;;;;;;;;;;;;;;2195909;67;3245;-28
2023/11/05 10:26:26;;;;;;;;;;;;;;;;;;2199137;67;3139;-28
2023/11/05 10:28:56;;;;;;;;;;;;;;;;;;2198811;59;3649;-28
2023/11/05 10:31:27;;;;;;;;;;;;;;;;;;2197663;59;4808;-28
2023/11/05 10:33:59;;;;;;;;;;;;;;;;;;2196468;59;2494;-28
2023/11/05 10:36:31;;;;;;;;;;;;;;;;;;2201507;67;2466;-28
2023/11/05 10:39:01;;;;;;;;;;;;;;;;;;2198421;59;2735;-28
2023/11/05 10:41:32;;;;;;;;;;;;;;;;;;2196758;59;2858;-28
2023/11/05 10:44:05;;;;;;;;;;;;;;;;;;2197077;59;4196;-28
2023/11/05 10:46:36;;;;;;;;;;;;;;;;;;2201647;59;4601;-28
2023/11/05 10:49:07;;;;;;;;;;;;;;;;;;2199481;67;3709;-24
2023/11/05 10:51:37;;;;;;;;;;;;;;;;;;2196840;59;4065;-24
2023/11/05 10:54:08;;;;;;;;;;;;;;;;;;2199528;67;3796;-25
2023/11/05 10:56:41;;;;;;;;;;;;;;;;;;2198463;67;2545;-24
2023/11/05 10:59:12;;;;;;;;;;;;;;;;;;2196279;67;3622;-24
2023/11/05 11:01:42;;;;;;;;;;;;;;;;;;2200121;59;4082;-24
2023/11/05 11:04:17;;;;;;;;;;;;;;;;;;2199145;59;3763;-24
2023/11/05 11:06:48;;;;;;;;;;;;;;;;;;2200192;67;3959;-24
2023/11/05 11:09:22;;;;;;;;;;;;;;;;;;2198917;67;4355;-27
2023/11/05 11:11:58;;;;;;;;;;;;;;;;;;2199184;67;2912;-26
2023/11/05 11:14:29;;;;;;;;;;;;;;;;;;2198029;67;3114;-24
2023/11/05 11:17:12;;;;;;;;;;;;;;;;;;2192587;67;3676;-24
2023/11/05 11:19:42;;;;;;;;;;;;;;;;;;2200931;67;2482;-24
2023/11/05 11:22:15;;;;;;;;;;;;;;;;;;2191877;67;2956;-24
2023/11/05 11:24:46;;;;;;;;;;;;;;;;;;2201385;59;3958;-24
2023/11/05 11:27:17;;;;;;;;;;;;;;;;;;2199871;59;3599;-24
2023/11/05 11:29:47;;;;;;;;;;;;;;;;;;2198026;59;3145;-24
2023/11/05 11:32:18;;;;;;;;;;;;;;;;;;2195718;59;2937;-24
2023/11/05 11:34:48;;;;;;;;;;;;;;;;;;2200492;67;3169;-24
2023/11/05 11:37:19;;;;;;;;;;;;;;;;;;2199192;59;2855;-24
2023/11/05 11:39:50;;;;;;;;;;;;;;;;;;2201212;59;3250;-24
2023/11/05 11:42:21;;;;;;;;;;;;;;;;;;2198965;67;3831;-24
2023/11/05 11:44:51;;;;;;;;;;;;;;;;;;2199870;59;3128;-24
2023/11/05 11:47:24;;;;;;;;;;;;;;;;;;2199163;67;2591;-24
2023/11/05 11:49:54;;;;;;;;;;;;;;;;;;2198211;59;2672;-24
2023/11/05 11:52:24;;;;;;;;;;;;;;;;;;2198786;67;2941;-24
2023/11/05 11:54:56;;;;;;;;;;;;;;;;;;2196440;59;3076;-24
2023/11/05 11:57:26;;;;;;;;;;;;;;;;;;2195582;67;2952;-25
2023/11/05 11:59:56;;;;;;;;;;;;;;;;;;2196932;67;2634;-25
2023/11/05 12:02:27;;;;;;;;;;;;;;;;;;2199150;59;3238;-25
2023/11/05 12:04:59;;;;;;;;;;;;;;;;;;2201072;67;2556;-25
2023/11/05 12:07:45;;;;;;;;;;;;;;;;;;2199405;59;2897;-25
2023/11/05 12:10:16;;;;;;;;;;;;;;;;;;2198557;67;3733;-25
2023/11/05 12:12:47;;;;;;;;;;;;;;;;;;2196943;67;3664;-25
2023/11/05 12:15:21;;;;;;;;;;;;;;;;;;2196102;67;3760;-25
2023/11/05 12:17:51;;;;;;;;;;;;;;;;;;2201144;59;2706;-25
2023/11/05 12:20:21;;;;;;;;;;;;;;;;;;2196055;67;3018;-25
2023/11/05 12:22:51;;;;;;;;;;;;;;;;;;2201666;67;2199;-25
2023/11/05 12:25:22;;;;;;;;;;;;;;;;;;2199740;67;4590;-25
2023/11/05 12:27:52;;;;;;;;;;;;;;;;;;2197667;59;2766;-25
2023/11/05 12:30:28;;;;;;;;;;;;;;;;;;2196912;59;2843;-25
2023/11/05 12:33:01;;;;;;;;;;;;;;;;;;2200576;59;2735;-25
2023/11/05 12:35:34;;;;;;;;;;;;;;;;;;2200187;59;2994;-25
2023/11/05 12:38:04;;;;;;;;;;;;;;;;;;2198993;59;3074;-25
2023/11/05 12:40:34;;;;;;;;;;;;;;;;;;2197237;59;3323;-25
2023/11/05 12:43:05;;;;;;;;;;;;;;;;;;2196408;59;3843;-25
2023/11/05 12:45:35;;;;;;;;;;;;;;;;;;2197227;67;3448;-25
2023/11/05 12:48:06;;;;;;;;;;;;;;;;;;2191645;59;3706;-25
2023/11/05 12:50:36;;;;;;;;;;;;;;;;;;2199658;59;2614;-25
2023/11/05 12:53:07;;;;;;;;;;;;;;;;;;2198411;59;2855;-25
2023/11/05 12:55:37;;;;;;;;;;;;;;;;;;2194818;59;2395;-25
2023/11/05 12:58:08;;;;;;;;;;;;;;;;;;2195313;67;2933;-25
2023/11/05 13:00:38;;;;;;;;;;;;;;;;;;2197957;59;2454;-25
2023/11/05 13:03:09;;;;;;;;;;;;;;;;;;2198685;59;2769;-25
2023/11/05 13:05:39;;;;;;;;;;;;;;;;;;2201101;59;3881;-25
2023/11/05 13:08:09;;;;;;;;;;;;;;;;;;2199047;59;2651;-25
2023/11/05 13:10:39;;;;;;;;;;;;;;;;;;2201494;67;2474;-25
2023/11/05 13:13:10;;;;;;;;;;;;;;;;;;2200366;59;3350;-25
2023/11/05 13:15:40;;;;;;;;;;;;;;;;;;2201271;67;2793;-25
2023/11/05 13:18:10;;;;;;;;;;;;;;;;;;2199654;67;2860;-25
2023/11/05 13:20:41;;;;;;;;;;;;;;;;;;2202558;67;2660;-25
2023/11/05 13:23:12;;;;;;;;;;;;;;;;;;2199806;67;2839;-25
2023/11/05 13:25:42;;;;;;;;;;;;;;;;;;2201917;67;2638;-25
2023/11/05 13:28:12;;;;;;;;;;;;;;;;;;2191388;59;2280;-25
2023/11/05 13:30:42;;;;;;;;;;;;;;;;;;2201887;59;2695;-24
2023/11/05 13:33:14;;;;;;;;;;;;;;;;;;2199707;59;2580;-24
2023/11/05 13:35:46;;;;;;;;;;;;;;;;;;2201973;59;3356;-24
2023/11/05 13:38:17;;;;;;;;;;;;;;;;;;2199439;59;4046;-24
2023/11/05 13:40:47;;;;;;;;;;;;;;;;;;2198926;59;3603;-24
2023/11/05 13:43:17;;;;;;;;;;;;;;;;;;2195754;59;2890;-24
2023/11/05 13:45:48;;;;;;;;;;;;;;;;;;2201340;67;3366;-24
2023/11/05 13:48:19;;;;;;;;;;;;;;;;;;2199239;59;3256;-24
2023/11/05 13:50:49;;;;;;;;;;;;;;;;;;2201954;67;3477;-24
2023/11/05 13:53:19;;;;;;;;;;;;;;;;;;2199320;59;2910;-24
2023/11/05 13:55:50;;;;;;;;;;;;;;;;;;2201694;67;3542;-24
2023/11/05 13:58:20;;;;;;;;;;;;;;;;;;2199691;59;4122;-24
2023/11/05 14:00:54;;;;;;;;;;;;;;;;;;2202652;59;2006;-24
2023/11/05 14:03:24;;;;;;;;;;;;;;;;;;2196180;67;3401;-24
2023/11/05 14:05:54;;;;;;;;;;;;;;;;;;2198562;59;2661;-24
2023/11/05 14:08:24;;;;;;;;;;;;;;;;;;2196679;67;2238;-24
2023/11/05 14:10:55;;;;;;;;;;;;;;;;;;2198556;67;2348;-24
2023/11/05 14:13:25;;;;;;;;;;;;;;;;;;2199135;59;2227;-24
2023/11/05 14:15:55;;;;;;;;;;;;;;;;;;2198548;67;3208;-24
2023/11/05 14:18:26;;;;;;;;;;;;;;;;;;2195963;67;2468;-24
2023/11/05 14:20:56;;;;;;;;;;;;;;;;;;2198144;67;2416;-24
2023/11/05 14:23:26;;;;;;;;;;;;;;;;;;2195888;59;2609;-24
2023/11/05 14:25:58;;;;;;;;;;;;;;;;;;2201906;59;2491;-24
2023/11/05 14:28:28;;;;;;;;;;;;;;;;;;2199728;59;3955;-24
2023/11/05 14:30:59;;;;;;;;;;;;;;;;;;2201555;67;3524;-24
2023/11/05 14:33:29;;;;;;;;;;;;;;;;;;2195713;59;2784;-24
2023/11/05 14:35:59;;;;;;;;;;;;;;;;;;2198748;59;2876;-24
2023/11/05 14:38:34;;;;;;;;;;;;;;;;;;2199867;59;2982;-25
2023/11/05 14:41:05;;;;;;;;;;;;;;;;;;2202203;59;2891;-24
2023/11/05 14:43:37;;;;;;;;;;;;;;;;;;2199647;59;4291;-24
2023/11/05 14:46:07;;;;;;;;;;;;;;;;;;2197902;59;3201;-24
2023/11/05 14:48:37;;;;;;;;;;;;;;;;;;2196059;67;3539;-24
2023/11/05 14:51:08;;;;;;;;;;;;;;;;;;2201359;59;2462;-24
2023/11/05 14:53:40;;;;;;;;;;;;;;;;;;2200304;67;2699;-24
2023/11/05 14:56:11;;;;;;;;;;;;;;;;;;2200190;59;2945;-24
2023/11/05 14:58:41;;;;;;;;;;;;;;;;;;2200693;59;2645;-24
2023/11/05 15:01:13;;;;;;;;;;;;;;;;;;2199856;59;3086;-24
2023/11/05 15:03:45;;;;;;;;;;;;;;;;;;2201335;59;2960;-24
2023/11/05 15:06:15;;;;;;;;;;;;;;;;;;2199292;59;2320;-24
2023/11/05 15:08:46;;;;;;;;;;;;;;;;;;2194314;59;2050;-24
2023/11/05 15:11:16;;;;;;;;;;;;;;;;;;2198582;59;3079;-24
2023/11/05 15:13:46;;;;;;;;;;;;;;;;;;2198003;67;3022;-24
2023/11/05 15:16:16;;;;;;;;;;;;;;;;;;2199491;67;2766;-24
2023/11/05 15:18:48;;;;;;;;;;;;;;;;;;2200819;67;2540;-26
2023/11/05 15:21:19;;;;;;;;;;;;;;;;;;2198462;59;2764;-26
2023/11/05 15:23:49;;;;;;;;;;;;;;;;;;2200559;59;2666;-26
2023/11/05 15:26:20;;;;;;;;;;;;;;;;;;2199298;67;3555;-26
2023/11/05 15:28:50;;;;;;;;;;;;;;;;;;2202195;59;2387;-24
2023/11/05 15:31:23;;;;;;;;;;;;;;;;;;2199643;67;2460;-23
2023/11/05 15:33:53;;;;;;;;;;;;;;;;;;2201775;59;3357;-24
2023/11/05 15:36:24;;;;;;;;;;;;;;;;;;2198900;59;3331;-26
2023/11/05 15:38:54;;;;;;;;;;;;;;;;;;2201902;59;2489;-26
2023/11/05 15:41:24;;;;;;;;;;;;;;;;;;2199393;59;3416;-26
2023/11/05 15:43:55;;;;;;;;;;;;;;;;;;2201556;67;2419;-26
2023/11/05 15:46:25;;;;;;;;;;;;;;;;;;2199233;67;3479;-26
2023/11/05 15:48:57;;;;;;;;;;;;;;;;;;2201091;59;3683;-25
2023/11/05 15:51:27;;;;;;;;;;;;;;;;;;2195189;64;3133;-26
2023/11/05 15:53:58;;;;;;;;;;;;;;;;;;2201219;59;2609;-26
2023/11/05 15:56:29;;;;;;;;;;;;;;;;;;2198324;67;3108;-26
2023/11/05 15:58:59;;;;;;;;;;;;;;;;;;2195802;59;2693;-26
2023/11/05 16:01:30;;;;;;;;;;;;;;;;;;2197448;59;3440;-26
2023/11/05 16:04:01;;;;;;;;;;;;;;;;;;2200308;59;2713;-26
2023/11/05 16:06:31;;;;;;;;;;;;;;;;;;2193606;67;2495;-26
2023/11/05 16:09:01;;;;;;;;;;;;;;;;;;2200770;59;2647;-26
2023/11/05 16:11:32;;;;;;;;;;;;;;;;;;2197814;67;2407;-26
2023/11/05 16:14:03;;;;;;;;;;;;;;;;;;2198062;59;3632;-26
2023/11/05 16:16:33;;;;;;;;;;;;;;;;;;2198421;67;2915;-26
2023/11/05 16:19:03;;;;;;;;;;;;;;;;;;2201398;67;3324;-26
2023/11/05 16:21:33;;;;;;;;;;;;;;;;;;2197720;59;2953;-26
2023/11/05 16:24:04;;;;;;;;;;;;;;;;;;2200472;59;2811;-26
2023/11/05 16:26:34;;;;;;;;;;;;;;;;;;2194063;67;3918;-26
2023/11/05 16:29:04;;;;;;;;;;;;;;;;;;2201709;59;2753;-26
2023/11/05 16:31:35;;;;;;;;;;;;;;;;;;2195068;59;3004;-25
2023/11/05 16:34:05;;;;;;;;;;;;;;;;;;2200969;67;2481;-25
2023/11/05 16:36:36;;;;;;;;;;;;;;;;;;2198844;59;2732;-25
2023/11/05 16:39:06;;;;;;;;;;;;;;;;;;2195589;59;3010;-25
2023/11/05 16:41:37;;;;;;;;;;;;;;;;;;2197832;59;2562;-25
2023/11/05 16:44:07;;;;;;;;;;;;;;;;;;2201121;59;2665;-25
2023/11/05 16:46:38;;;;;;;;;;;;;;;;;;2198454;67;3132;-25
2023/11/05 16:49:08;;;;;;;;;;;;;;;;;;2194466;59;3429;-25
2023/11/05 16:51:43;;;;;;;;;;;;;;;;;;2195095;67;3233;-26
2023/11/05 16:54:13;;;;;;;;;;;;;;;;;;2205034;59;2792;-25
2023/11/05 16:56:49;;;;;;;;;;;;;;;;;;2199464;67;2821;-25
2023/11/05 16:59:20;;;;;;;;;;;;;;;;;;2196963;67;2712;-25
2023/11/05 17:01:50;;;;;;;;;;;;;;;;;;2196681;59;3168;-25
2023/11/05 17:04:22;;;;;;;;;;;;;;;;;;2199314;67;2527;-25
2023/11/05 17:06:52;;;;;;;;;;;;;;;;;;2197657;67;3764;-25
2023/11/05 17:09:22;;;;;;;;;;;;;;;;;;2195874;67;2844;-25
2023/11/05 17:11:53;;;;;;;;;;;;;;;;;;2195038;67;2631;-25
2023/11/05 17:14:23;;;;;;;;;;;;;;;;;;2194550;59;2622;-25
2023/11/05 17:16:53;;;;;;;;;;;;;;;;;;2201146;67;2675;-25
2023/11/05 17:19:24;;;;;;;;;;;;;;;;;;2195485;59;3394;-25
2023/11/05 17:21:54;;;;;;;;;;;;;;;;;;2199999;67;2666;-25
2023/11/05 17:24:24;;;;;;;;;;;;;;;;;;2198752;59;2590;-25
2023/11/05 17:26:54;;;;;;;;;;;;;;;;;;2197490;67;2681;-25